Time;durP1;ratioP1;P1;durP2;ratioP2;P2;SDS_P1;SDS_P2;PMS_P1;PMS_P2;Temp;Humidity;BMP_temperature;BMP_pressure;BME280_temperature;BME280_humidity;BME280_pressure;Samples;Min_cycle;Max_cycle;Signal;HPM_P1;HPM_P2
2024/03/27 00:00:11;;;;;;;0.50;0.50;;;;;;;9.89;62.42;94036.78;29395;219;63005;-54
2024/03/27 00:00:42;;;;;;;0.50;0.50;;;;;;;9.90;62.34;94032.16;29394;264;64013;-56
2024/03/27 00:01:13;;;;;;;0.50;0.50;;;;;;;9.90;62.16;94032.94;29395;207;63005;-55
2024/03/27 00:01:46;;;;;;;0.50;0.50;;;;;;;9.91;62.41;94034.50;29395;268;63009;-55
2024/03/27 00:02:17;;;;;;;0.50;0.50;;;;;;;9.92;62.34;94035.28;29395;275;63005;-54
2024/03/27 00:02:48;;;;;;;0.50;0.50;;;;;;;9.92;62.42;94027.16;29395;196;63009;-73
2024/03/27 00:03:20;;;;;;;0.50;0.50;;;;;;;9.93;62.32;94043.06;29395;245;63006;-53
2024/03/27 00:03:51;;;;;;;0.50;0.50;;;;;;;9.92;62.96;94040.72;29395;239;63009;-53
2024/03/27 00:04:23;;;;;;;0.50;0.50;;;;;;;9.92;62.60;94036.06;29395;258;63009;-54
2024/03/27 00:04:54;;;;;;;0.50;0.50;;;;;;;9.90;62.73;94032.94;29394;212;64013;-54
2024/03/27 00:05:26;;;;;;;0.50;0.50;;;;;;;9.89;62.69;94025.97;29395;216;63004;-54
2024/03/27 00:05:58;;;;;;;0.50;0.50;;;;;;;9.90;62.70;94024.81;29395;204;63008;-56
2024/03/27 00:06:31;;;;;;;0.50;0.50;;;;;;;9.90;62.63;94021.31;29394;253;64009;-55
2024/03/27 00:07:04;;;;;;;0.50;0.50;;;;;;;9.90;62.33;94015.91;29394;268;64014;-53
2024/03/27 00:07:35;;;;;;;0.50;0.50;;;;;;;9.90;62.57;94022.09;29395;244;63008;-54
2024/03/27 00:08:08;;;;;;;0.50;0.50;;;;;;;9.90;62.54;94022.09;29395;215;63017;-54
2024/03/27 00:08:40;;;;;;;0.50;0.50;;;;;;;9.90;62.42;94026.75;29395;232;63007;-54
2024/03/27 00:09:13;;;;;;;0.50;0.50;;;;;;;9.92;62.36;94019.84;29395;260;63009;-54
2024/03/27 00:09:48;;;;;;;1.37;1.37;;;;;;;9.93;62.56;94017.91;29395;198;63011;-54
2024/03/27 00:10:19;;;;;;;0.50;0.50;;;;;;;9.93;62.13;94021.41;29395;240;63009;-54
2024/03/27 00:10:50;;;;;;;0.50;0.50;;;;;;;9.91;62.50;94020.97;29395;208;63004;-54
2024/03/27 00:11:24;;;;;;;0.50;0.50;;;;;;;9.92;62.15;94019.03;29395;259;63009;-53
2024/03/27 00:11:55;;;;;;;0.50;0.50;;;;;;;9.91;62.49;94023.69;29394;263;64009;-54
2024/03/27 00:12:27;;;;;;;0.50;0.50;;;;;;;9.90;62.45;94027.53;29395;203;63009;-54
2024/03/27 00:12:59;;;;;;;0.50;0.50;;;;;;;9.90;62.37;94015.91;29395;202;63016;-70
2024/03/27 00:13:30;;;;;;;0.50;0.50;;;;;;;9.91;62.59;94017.47;29395;205;63008;-54
2024/03/27 00:14:02;;;;;;;0.50;0.50;;;;;;;9.90;62.59;94016.69;29395;244;63005;-54
2024/03/27 00:14:34;;;;;;;0.50;0.50;;;;;;;9.89;62.79;94025.19;29395;276;63009;-53
2024/03/27 00:15:07;;;;;;;0.50;0.50;;;;;;;9.88;62.69;94024.38;29395;197;63012;-53
2024/03/27 00:15:49;;;;;;;0.50;0.50;;;;;;;9.88;62.66;94024.38;29395;205;63009;-53
2024/03/27 00:16:21;;;;;;;0.50;0.50;;;;;;;9.89;62.83;94020.53;29394;226;64005;-55
2024/03/27 00:16:52;;;;;;;0.50;0.50;;;;;;;9.89;62.85;94020.53;29395;204;63009;-54
2024/03/27 00:17:26;;;;;;;0.50;0.50;;;;;;;9.89;62.79;94017.84;29394;203;64009;-54
2024/03/27 00:17:58;;;;;;;0.50;0.50;;;;;;;9.90;63.01;94011.28;29395;207;63014;-54
2024/03/27 00:18:29;;;;;;;0.50;0.50;;;;;;;9.91;62.66;94018.25;29395;252;63012;-54
2024/03/27 00:19:00;;;;;;;0.50;0.50;;;;;;;9.94;62.48;94019.47;29395;226;63009;-54
2024/03/27 00:19:32;;;;;;;0.50;0.50;;;;;;;9.95;62.60;94019.13;29395;215;63004;-54
2024/03/27 00:20:08;;;;;;;0.50;0.50;;;;;;;9.96;62.55;94025.31;29395;203;63009;-53
2024/03/27 00:20:39;;;;;;;0.50;0.50;;;;;;;9.94;62.43;94022.97;29395;209;63004;-53
2024/03/27 00:21:11;;;;;;;0.50;0.50;;;;;;;9.93;62.72;94026.81;29394;259;64013;-54
2024/03/27 00:21:42;;;;;;;0.50;0.50;;;;;;;9.92;62.86;94022.53;29394;251;64009;-54
2024/03/27 00:22:13;;;;;;;0.50;0.50;;;;;;;9.91;62.69;94018.25;29395;271;63009;-54
2024/03/27 00:22:44;;;;;;;0.50;0.50;;;;;;;9.90;62.82;94022.09;29395;222;63008;-54
2024/03/27 00:23:16;;;;;;;0.50;0.50;;;;;;;9.89;62.72;94015.13;29395;199;63009;-54
2024/03/27 00:23:51;;;;;;;0.50;0.50;;;;;;;9.88;62.78;94018.97;29395;204;63005;-53
2024/03/27 00:24:22;;;;;;;0.50;0.50;;;;;;;9.87;62.74;94011.22;29394;247;64013;-55
2024/03/27 00:24:54;;;;;;;0.50;0.50;;;;;;;9.85;62.98;94008.84;29395;216;63005;-54
2024/03/27 00:25:25;;;;;;;0.50;0.50;;;;;;;9.87;62.82;94012.00;29395;279;63009;-55
2024/03/27 00:25:58;;;;;;;0.50;0.50;;;;;;;9.86;62.88;94015.84;29395;243;63004;-54
2024/03/27 00:26:30;;;;;;;0.50;0.50;;;;;;;9.88;62.75;94008.16;29395;286;63004;-69
2024/03/27 00:27:05;;;;;;;0.50;0.50;;;;;;;9.89;62.63;94004.28;29395;264;63004;-54
2024/03/27 00:27:36;;;;;;;0.50;0.50;;;;;;;9.91;62.72;94001.22;29394;208;64013;-54
2024/03/27 00:28:09;;;;;;;0.50;0.50;;;;;;;9.90;62.65;93995.03;29395;260;63004;-55
2024/03/27 00:28:40;;;;;;;0.50;0.50;;;;;;;9.92;62.54;93992.75;29395;245;63008;-55
2024/03/27 00:29:11;;;;;;;0.50;0.50;;;;;;;9.94;62.55;93993.16;29395;201;63005;-53
2024/03/27 00:29:43;;;;;;;0.60;0.60;;;;;;;9.93;62.62;93988.91;29395;248;63009;-54
2024/03/27 00:30:15;;;;;;;0.50;0.50;;;;;;;9.92;62.46;93991.97;29395;205;63008;-53
2024/03/27 00:30:46;;;;;;;0.50;0.50;;;;;;;9.90;62.50;93984.19;29395;241;63009;-54
2024/03/27 00:31:17;;;;;;;0.50;0.50;;;;;;;9.88;62.60;93991.09;29395;242;63005;-54
2024/03/27 00:31:49;;;;;;;0.60;0.60;;;;;;;9.86;62.78;93983.34;29395;197;63009;-55
2024/03/27 00:32:20;;;;;;;0.70;0.70;;;;;;;9.85;62.66;93986.41;29394;242;64009;-53
2024/03/27 00:32:51;;;;;;;0.50;0.50;;;;;;;9.84;62.87;93985.63;29395;277;63009;-54
2024/03/27 00:33:23;;;;;;;0.50;0.50;;;;;;;9.83;62.84;93980.56;29395;238;63004;-54
2024/03/27 00:33:55;;;;;;;0.50;0.50;;;;;;;9.81;62.72;93983.62;29395;227;63009;-54
2024/03/27 00:34:29;;;;;;;0.50;0.50;;;;;;;9.81;63.13;93980.91;29395;240;63004;-54
2024/03/27 00:35:01;;;;;;;0.50;0.50;;;;;;;9.81;63.34;93982.84;29395;279;63019;-72
2024/03/27 00:35:33;;;;;;;0.50;0.50;;;;;;;9.79;63.28;93983.19;29395;202;63004;-54
2024/03/27 00:36:05;;;;;;;0.50;0.50;;;;;;;9.79;63.30;93988.63;29395;239;63008;-53
2024/03/27 00:36:36;;;;;;;0.50;0.50;;;;;;;9.79;63.32;93977.00;29395;255;63009;-54
2024/03/27 00:37:07;;;;;;;0.50;0.50;;;;;;;9.77;63.33;93980.06;29395;212;63014;-54
2024/03/27 00:37:38;;;;;;;0.50;0.50;;;;;;;9.75;63.54;93975.00;29394;218;64009;-54
2024/03/27 00:38:10;;;;;;;0.50;0.50;;;;;;;9.75;63.79;93987.75;29394;218;64014;-53
2024/03/27 00:38:41;;;;;;;0.50;0.50;;;;;;;9.73;63.84;93979.22;29395;255;63005;-71
2024/03/27 00:39:12;;;;;;;0.50;0.50;;;;;;;9.71;63.47;93981.50;29395;243;63009;-54
2024/03/27 00:39:44;;;;;;;0.50;0.50;;;;;;;9.70;63.65;93983.41;29394;446;64009;-54
2024/03/27 00:40:15;;;;;;;0.50;0.50;;;;;;;9.69;63.50;93979.16;29395;239;63009;-53
2024/03/27 00:40:47;;;;;;;0.50;0.50;;;;;;;9.69;63.60;93984.59;29395;198;63017;-54
2024/03/27 00:41:19;;;;;;;0.50;0.50;;;;;;;9.69;63.86;93978.38;29395;237;63009;-53
2024/03/27 00:41:50;;;;;;;0.50;0.50;;;;;;;9.68;63.89;93976.81;29395;233;63004;-53
2024/03/27 00:42:21;;;;;;;0.50;0.50;;;;;;;9.67;64.03;93980.66;29395;274;63009;-54
2024/03/27 00:42:52;;;;;;;0.50;0.50;;;;;;;9.66;63.78;93969.06;29394;277;64008;-54
2024/03/27 00:43:24;;;;;;;0.50;0.50;;;;;;;9.66;64.03;93973.69;29395;243;63008;-55
2024/03/27 00:43:55;;;;;;;0.50;0.50;;;;;;;9.66;63.96;93976.38;29395;276;63004;-54
2024/03/27 00:44:27;;;;;;;0.50;0.50;;;;;;;9.65;63.85;93977.53;29394;254;64014;-54
2024/03/27 00:44:58;;;;;;;0.50;0.50;;;;;;;9.65;64.14;93977.53;29395;197;63005;-54
2024/03/27 00:45:30;;;;;;;0.50;0.50;;;;;;;9.65;63.98;93975.59;29395;211;63025;-54
2024/03/27 00:46:05;;;;;;;0.50;0.50;;;;;;;9.65;64.34;93972.13;29395;206;63005;-54
2024/03/27 00:46:36;;;;;;;0.50;0.50;;;;;;;9.65;64.33;93966.69;29395;216;63020;-54
2024/03/27 00:47:08;;;;;;;0.50;0.50;;;;;;;9.65;63.97;93972.13;29395;235;63005;-55
2024/03/27 00:47:42;;;;;;;0.50;0.50;;;;;;;9.65;64.09;93966.69;29395;196;63009;-54
2024/03/27 00:48:13;;;;;;;0.50;0.50;;;;;;;9.66;64.10;93973.69;29395;279;63007;-54
2024/03/27 00:48:44;;;;;;;0.50;0.50;;;;;;;9.65;64.08;93970.19;29395;206;63009;-68
2024/03/27 00:49:17;;;;;;;0.50;0.50;;;;;;;9.66;64.29;93968.28;29395;199;63004;-54
2024/03/27 00:49:48;;;;;;;0.50;0.50;;;;;;;9.67;64.13;93969.84;29394;266;64033;-54
2024/03/27 00:50:20;;;;;;;0.50;0.50;;;;;;;9.67;64.13;93970.63;29395;213;63004;-54
2024/03/27 00:50:51;;;;;;;0.50;0.50;;;;;;;9.69;64.02;93972.97;29395;271;63008;-54
2024/03/27 00:51:23;;;;;;;0.50;0.50;;;;;;;9.70;64.06;93974.53;29395;212;63005;-54
2024/03/27 00:51:54;;;;;;;0.50;0.50;;;;;;;9.70;63.93;93971.84;29394;252;64014;-54
2024/03/27 00:52:25;;;;;;;0.50;0.50;;;;;;;9.70;63.86;93967.16;29395;202;63005;-55
2024/03/27 00:52:57;;;;;;;0.50;0.50;;;;;;;9.71;63.77;93976.06;29395;222;63009;-54
2024/03/27 00:53:28;;;;;;;0.50;0.50;;;;;;;9.71;63.77;93970.66;29395;247;63005;-54
2024/03/27 00:54:00;;;;;;;0.50;0.50;;;;;;;9.70;63.78;93964.47;29394;214;64013;-54
2024/03/27 00:54:34;;;;;;;0.50;0.50;;;;;;;9.71;63.63;93966.03;29395;277;63005;-53
2024/03/27 00:55:06;;;;;;;0.60;0.60;;;;;;;9.74;63.74;93964.53;29394;213;64013;-53
2024/03/27 00:55:38;;;;;;;0.50;0.50;;;;;;;9.75;63.69;93960.69;29395;232;63004;-54
2024/03/27 00:56:09;;;;;;;0.50;0.50;;;;;;;9.77;63.66;93963.81;29395;248;63009;-54
2024/03/27 00:56:42;;;;;;;0.60;0.60;;;;;;;9.79;63.26;93956.13;29395;216;63017;-54
2024/03/27 00:57:13;;;;;;;0.50;0.50;;;;;;;9.79;63.51;93950.72;29395;245;63009;-53
2024/03/27 00:57:45;;;;;;;0.50;0.50;;;;;;;9.82;63.09;93957.34;29395;219;63004;-54
2024/03/27 00:58:18;;;;;;;0.50;0.50;;;;;;;9.81;63.10;93948.44;29395;251;63008;-68
2024/03/27 00:58:53;;;;;;;0.50;0.50;;;;;;;9.81;63.12;93945.72;29395;204;63005;-67
2024/03/27 00:59:25;;;;;;;0.50;0.50;;;;;;;9.80;62.96;93936.03;29395;220;63009;-55
2024/03/27 00:59:59;;;;;;;0.50;0.50;;;;;;;9.83;63.26;93945.34;29394;216;64009;-54
2024/03/27 01:00:30;;;;;;;0.50;0.50;;;;;;;9.85;63.11;93934.94;29395;233;63019;-54
2024/03/27 01:01:02;;;;;;;0.50;0.50;;;;;;;9.85;62.93;93935.75;29395;234;63005;-54
2024/03/27 01:01:34;;;;;;;0.50;0.50;;;;;;;9.84;62.80;93936.88;29395;264;63016;-54
2024/03/27 01:02:05;;;;;;;0.50;0.50;;;;;;;9.83;62.76;93934.53;29395;243;63005;-54
2024/03/27 01:02:37;;;;;;;0.50;0.50;;;;;;;9.83;62.93;93932.59;29394;231;64013;-55
2024/03/27 01:03:11;;;;;;;0.50;0.50;;;;;;;9.82;62.93;93931.03;29395;233;63004;-54
2024/03/27 01:03:43;;;;;;;0.50;0.50;;;;;;;9.81;62.77;93937.59;29395;273;63009;-54
2024/03/27 01:04:15;;;;;;;0.60;0.60;;;;;;;9.80;63.02;93935.25;29395;220;63004;-54
2024/03/27 01:04:50;;;;;;;0.50;0.50;;;;;;;9.79;62.91;93936.38;29395;249;63015;-53
2024/03/27 01:05:22;;;;;;;0.50;0.50;;;;;;;9.75;63.27;93933.59;29394;203;64008;-54
2024/03/27 01:05:53;;;;;;;0.50;0.50;;;;;;;9.73;63.21;93931.25;29395;266;63008;-54
2024/03/27 01:06:24;;;;;;;0.60;0.60;;;;;;;9.72;63.51;93928.91;29395;259;63005;-54
2024/03/27 01:06:59;;;;;;;0.50;0.50;;;;;;;9.69;63.44;93925.03;29395;199;63009;-54
2024/03/27 01:07:30;;;;;;;0.50;0.50;;;;;;;9.69;63.48;93926.94;29395;206;63001;-54
2024/03/27 01:08:03;;;;;;;0.50;0.50;;;;;;;9.68;63.79;93933.50;29395;251;63018;-54
2024/03/27 01:08:34;;;;;;;0.50;0.50;;;;;;;9.66;63.47;93923.03;29395;253;63005;-54
2024/03/27 01:09:06;;;;;;;0.50;0.50;;;;;;;9.67;63.72;93921.09;29395;222;63017;-53
2024/03/27 01:09:38;;;;;;;0.60;0.60;;;;;;;9.64;63.55;93916.41;29395;213;63005;-54
2024/03/27 01:10:11;;;;;;;0.50;0.50;;;;;;;9.64;63.82;93933.44;29395;251;63005;-54
2024/03/27 01:10:46;;;;;;;0.50;0.50;;;;;;;9.62;63.68;93930.28;29394;202;64009;-54
2024/03/27 01:11:18;;;;;;;0.50;0.50;;;;;;;9.61;63.71;93927.94;29395;218;63009;-54
2024/03/27 01:11:52;;;;;;;0.50;0.50;;;;;;;9.60;63.63;93920.97;29395;266;63004;-53
2024/03/27 01:12:23;;;;;;;0.50;0.50;;;;;;;9.60;64.07;93926.37;29395;196;63009;-54
2024/03/27 01:12:55;;;;;;;0.50;0.50;;;;;;;9.59;63.94;93920.19;29395;202;63008;-54
2024/03/27 01:13:26;;;;;;;0.50;0.50;;;;;;;9.58;63.96;93925.97;29395;266;63008;-54
2024/03/27 01:13:59;;;;;;;0.50;0.50;;;;;;;9.58;64.13;93921.31;29394;200;64009;-54
2024/03/27 01:14:30;;;;;;;0.50;0.50;;;;;;;9.57;63.87;93914.34;29395;211;63009;-53
2024/03/27 01:15:01;;;;;;;0.50;0.50;;;;;;;9.60;64.00;93910.13;29395;234;63005;-54
2024/03/27 01:15:34;;;;;;;0.50;0.50;;;;;;;9.59;63.73;93905.88;29395;280;63009;-54
2024/03/27 01:16:06;;;;;;;0.50;0.50;;;;;;;9.58;64.01;93898.88;29394;272;64009;-54
2024/03/27 01:16:37;;;;;;;0.50;0.50;;;;;;;9.58;63.78;93901.59;29395;239;63009;-54
2024/03/27 01:17:08;;;;;;;0.50;0.50;;;;;;;9.58;63.69;93896.19;29395;253;63005;-54
2024/03/27 01:17:40;;;;;;;0.50;0.50;;;;;;;9.58;63.92;93898.88;29395;278;63019;-54
2024/03/27 01:18:11;;;;;;;0.50;0.50;;;;;;;9.58;63.72;93890.75;29395;262;63004;-56
2024/03/27 01:18:42;;;;;;;0.60;0.60;;;;;;;9.57;63.85;93889.19;29395;198;63009;-54
2024/03/27 01:19:13;;;;;;;0.50;0.50;;;;;;;9.56;63.91;93893.03;29394;210;64001;-54
2024/03/27 01:19:45;;;;;;;0.50;0.50;;;;;;;9.55;63.76;93886.06;29395;202;63009;-53
2024/03/27 01:20:17;;;;;;;0.50;0.50;;;;;;;9.52;63.90;93887.56;29395;199;63004;-54
2024/03/27 01:20:48;;;;;;;0.50;0.50;;;;;;;9.52;63.94;93892.19;29395;218;63008;-54
2024/03/27 01:21:19;;;;;;;0.60;0.60;;;;;;;9.50;63.87;93889.84;29395;262;63005;-53
2024/03/27 01:21:51;;;;;;;0.50;0.50;;;;;;;9.48;63.95;93894.84;29394;202;64014;-54
2024/03/27 01:22:22;;;;;;;0.50;0.50;;;;;;;9.47;64.12;93900.59;29395;214;63010;-53
2024/03/27 01:22:54;;;;;;;0.60;0.60;;;;;;;9.44;64.38;93895.91;29394;207;64009;-54
2024/03/27 01:23:25;;;;;;;0.50;0.50;;;;;;;9.42;64.68;93904.37;29395;243;63005;-54
2024/03/27 01:23:56;;;;;;;0.50;0.50;;;;;;;9.39;64.88;93905.88;29395;196;63013;-53
2024/03/27 01:24:27;;;;;;;0.50;0.50;;;;;;;9.37;64.85;93907.38;29395;197;63009;-53
2024/03/27 01:24:58;;;;;;;0.50;0.50;;;;;;;9.33;65.17;93907.31;29395;275;63009;-54
2024/03/27 01:25:30;;;;;;;0.60;0.60;;;;;;;9.30;65.34;93908.03;29394;246;64009;-54
2024/03/27 01:26:04;;;;;;;0.50;0.50;;;;;;;9.29;65.22;93914.59;29395;217;63009;-54
2024/03/27 01:26:35;;;;;;;0.50;0.50;;;;;;;9.26;65.90;93907.19;29395;199;63004;-54
2024/03/27 01:27:07;;;;;;;0.55;0.55;;;;;;;9.23;65.59;93907.88;29395;236;63015;-54
2024/03/27 01:27:39;;;;;;;0.60;0.60;;;;;;;9.21;65.71;93910.16;29395;263;63004;-54
2024/03/27 01:28:10;;;;;;;0.50;0.50;;;;;;;9.19;66.22;93907.03;29395;251;63008;-53
2024/03/27 01:28:41;;;;;;;0.50;0.50;;;;;;;9.17;66.33;93905.81;29395;198;63009;-54
2024/03/27 01:29:12;;;;;;;0.60;0.60;;;;;;;9.16;66.31;93912.38;29395;200;63017;-54
2024/03/27 01:29:45;;;;;;;0.50;0.50;;;;;;;9.13;66.25;93913.84;29395;206;63005;-54
2024/03/27 01:30:17;;;;;;;0.50;0.50;;;;;;;9.12;66.58;93917.69;29394;260;64005;-56
2024/03/27 01:30:52;;;;;;;0.60;0.60;;;;;;;9.09;66.46;93907.59;29395;252;63005;-53
2024/03/27 01:31:24;;;;;;;0.50;0.50;;;;;;;9.08;66.69;93911.44;29395;252;63017;-53
2024/03/27 01:31:55;;;;;;;0.50;0.50;;;;;;;9.06;66.73;93913.72;29395;200;63005;-54
2024/03/27 01:32:27;;;;;;;0.50;0.50;;;;;;;9.04;66.80;93910.56;29395;220;63009;-54
2024/03/27 01:32:58;;;;;;;0.50;0.50;;;;;;;9.03;66.71;93911.72;29395;216;63004;-54
2024/03/27 01:33:29;;;;;;;0.50;0.50;;;;;;;9.01;66.72;93909.34;29395;267;63009;-54
2024/03/27 01:34:00;;;;;;;0.50;0.50;;;;;;;8.99;66.79;93911.66;29395;217;63004;-71
2024/03/27 01:34:32;;;;;;;0.50;0.50;;;;;;;8.98;67.13;93912.81;29394;221;64013;-54
2024/03/27 01:35:04;;;;;;;0.60;0.60;;;;;;;8.96;67.26;93914.28;29395;220;63004;-53
2024/03/27 01:35:35;;;;;;;0.50;0.50;;;;;;;8.94;68.37;93921.97;29395;221;63008;-53
2024/03/27 01:36:07;;;;;;;0.60;0.60;;;;;;;8.91;68.71;93925.38;29395;219;63004;-54
2024/03/27 01:36:38;;;;;;;0.50;0.50;;;;;;;8.87;68.73;93917.19;29395;226;63009;-54
2024/03/27 01:37:09;;;;;;;0.50;0.50;;;;;;;8.86;68.32;93915.62;29395;278;63005;-54
2024/03/27 01:37:40;;;;;;;0.50;0.50;;;;;;;8.83;68.96;93932.56;29395;214;63009;-54
2024/03/27 01:38:11;;;;;;;0.50;0.50;;;;;;;8.80;69.14;93932.47;29395;230;63005;-54
2024/03/27 01:38:45;;;;;;;0.50;0.50;;;;;;;8.78;68.81;93918.53;29395;277;63009;-55
2024/03/27 01:39:16;;;;;;;0.50;0.50;;;;;;;8.75;68.49;93920.00;29394;226;64009;-53
2024/03/27 01:39:48;;;;;;;0.50;0.50;;;;;;;8.76;68.36;93920.78;29395;244;63009;-54
2024/03/27 01:40:20;;;;;;;0.50;0.50;;;;;;;8.75;68.20;93914.59;29394;244;64009;-54
2024/03/27 01:40:51;;;;;;;0.80;0.80;;;;;;;8.76;68.48;93918.09;29395;236;63021;-54
2024/03/27 01:41:22;;;;;;;0.50;0.50;;;;;;;8.74;68.38;93919.22;29395;204;63004;-54
2024/03/27 01:41:54;;;;;;;0.50;0.50;;;;;;;8.74;68.29;93916.53;29395;213;63009;-54
2024/03/27 01:42:26;;;;;;;0.50;0.50;;;;;;;8.73;68.52;93911.47;29394;242;64008;-53
2024/03/27 01:43:01;;;;;;;0.50;0.50;;;;;;;8.74;68.42;93915.75;29395;196;63008;-54
2024/03/27 01:43:32;;;;;;;0.50;0.50;;;;;;;8.72;68.06;93910.69;29395;211;63004;-53
2024/03/27 01:44:03;;;;;;;0.50;0.50;;;;;;;8.72;68.51;93910.69;29395;218;63009;-54
2024/03/27 01:44:35;;;;;;;0.50;0.50;;;;;;;8.71;68.38;93901.00;29395;233;63005;-53
2024/03/27 01:45:12;;;;;;;0.50;0.50;;;;;;;8.71;68.23;93903.72;29395;215;63009;-54
2024/03/27 01:45:43;;;;;;;0.50;0.50;;;;;;;8.71;68.12;93901.00;29394;216;64009;-54
2024/03/27 01:46:18;;;;;;;0.50;0.50;;;;;;;8.72;67.78;93897.16;29395;214;63009;-54
2024/03/27 01:46:51;;;;;;;0.50;0.50;;;;;;;8.71;67.84;93898.31;29395;208;63005;-54
2024/03/27 01:47:23;;;;;;;0.50;0.50;;;;;;;8.71;68.06;93903.72;29395;203;63012;-54
2024/03/27 01:47:54;;;;;;;0.50;0.50;;;;;;;8.71;68.04;93894.81;29394;212;63999;-54
2024/03/27 01:48:27;;;;;;;0.50;0.50;;;;;;;8.70;68.22;93896.72;29395;206;63016;-54
2024/03/27 01:48:58;;;;;;;0.50;0.50;;;;;;;8.69;68.26;93895.16;29395;221;63004;-54
2024/03/27 01:49:33;;;;;;;0.50;0.50;;;;;;;8.69;68.30;93900.56;29395;212;63009;-54
2024/03/27 01:50:08;;;;;;;0.50;0.50;;;;;;;8.67;68.23;93902.84;29394;196;64008;-72
2024/03/27 01:50:39;;;;;;;0.60;0.60;;;;;;;8.66;68.15;93900.53;29395;198;63009;-54
2024/03/27 01:51:11;;;;;;;0.50;0.50;;;;;;;8.65;68.29;93901.66;29395;215;63010;-54
2024/03/27 01:51:43;;;;;;;0.50;0.50;;;;;;;8.65;68.38;93901.66;29395;235;63009;-54
2024/03/27 01:52:15;;;;;;;0.50;0.50;;;;;;;8.64;68.37;93897.38;29395;204;63005;-54
2024/03/27 01:52:46;;;;;;;0.50;0.50;;;;;;;8.62;68.71;93900.44;29395;206;63009;-54
2024/03/27 01:53:19;;;;;;;0.50;0.50;;;;;;;8.62;68.63;93905.06;29394;213;64009;-54
2024/03/27 01:53:51;;;;;;;0.50;0.50;;;;;;;8.61;68.68;93904.28;29395;197;63017;-54
2024/03/27 01:54:23;;;;;;;0.50;0.50;;;;;;;8.59;68.90;93906.56;29395;199;63011;-54
2024/03/27 01:54:54;;;;;;;0.50;0.50;;;;;;;8.58;69.47;93910.37;29395;204;63009;-53
2024/03/27 01:55:26;;;;;;;0.50;0.50;;;;;;;8.56;69.83;93904.53;29395;216;63004;-54
2024/03/27 01:55:58;;;;;;;0.50;0.50;;;;;;;8.55;69.70;93899.50;29395;256;63009;-54
2024/03/27 01:56:32;;;;;;;0.50;0.50;;;;;;;8.54;69.81;93906.03;29395;238;63004;-53
2024/03/27 01:57:05;;;;;;;0.50;0.50;;;;;;;8.52;70.11;93911.00;29395;237;63009;-53
2024/03/27 01:57:38;;;;;;;0.50;0.50;;;;;;;8.49;70.27;93912.50;29395;197;63004;-54
2024/03/27 01:58:10;;;;;;;0.50;0.50;;;;;;;8.48;70.60;93910.91;29395;274;63014;-53
2024/03/27 01:58:45;;;;;;;0.50;0.50;;;;;;;8.45;70.49;93910.84;29394;207;64009;-54
2024/03/27 01:59:16;;;;;;;0.50;0.50;;;;;;;8.44;70.47;93912.75;29395;271;63025;-54
2024/03/27 01:59:49;;;;;;;0.50;0.50;;;;;;;8.42;70.64;93915.03;29395;236;63005;-53
2024/03/27 02:00:20;;;;;;;0.50;0.50;;;;;;;8.41;70.60;93916.16;29395;218;63009;-54
2024/03/27 02:00:52;;;;;;;1.02;1.02;;;;;;;8.40;71.02;93914.59;29395;230;63005;-53
2024/03/27 02:01:25;;;;;;;0.50;0.50;;;;;;;8.38;70.77;93914.16;29395;235;63009;-56
2024/03/27 02:01:58;;;;;;;0.60;0.60;;;;;;;8.37;70.60;93920.69;29395;211;63005;-54
2024/03/27 02:02:29;;;;;;;0.60;0.60;;;;;;;8.35;70.94;93920.25;29395;226;63009;-54
2024/03/27 02:03:01;;;;;;;0.50;0.50;;;;;;;8.32;71.39;93919.03;29395;214;63004;-54
2024/03/27 02:03:33;;;;;;;0.50;0.50;;;;;;;8.30;71.56;93923.22;29394;202;64013;-53
2024/03/27 02:04:05;;;;;;;0.50;0.50;;;;;;;8.28;71.38;93909.28;29395;217;63004;-54
2024/03/27 02:04:36;;;;;;;0.50;0.50;;;;;;;8.27;71.76;93913.13;29395;214;63009;-55
2024/03/27 02:05:08;;;;;;;0.60;0.60;;;;;;;8.22;73.25;93924.19;29395;229;63010;-55
2024/03/27 02:05:41;;;;;;;0.60;0.60;;;;;;;8.14;73.52;93917.81;29395;222;63009;-54
2024/03/27 02:06:13;;;;;;;0.50;0.50;;;;;;;8.10;74.01;93921.56;29395;225;63005;-54
2024/03/27 02:06:45;;;;;;;0.60;0.60;;;;;;;8.07;73.88;93918.41;29395;216;63014;-53
2024/03/27 02:07:16;;;;;;;0.50;0.50;;;;;;;8.05;73.17;93920.69;29395;197;63005;-54
2024/03/27 02:07:48;;;;;;;0.50;0.50;;;;;;;8.06;72.90;93910.66;29395;214;63009;-54
2024/03/27 02:08:19;;;;;;;0.50;0.50;;;;;;;8.06;72.65;93916.84;29395;204;63005;-54
2024/03/27 02:08:50;;;;;;;0.50;0.50;;;;;;;8.06;72.32;93916.06;29394;260;64013;-54
2024/03/27 02:09:22;;;;;;;0.60;0.60;;;;;;;8.06;72.71;93911.44;29395;345;63005;-54
2024/03/27 02:09:53;;;;;;;0.50;0.50;;;;;;;8.06;73.18;93916.84;29395;200;63009;-53
2024/03/27 02:10:25;;;;;;;0.60;0.60;;;;;;;8.03;73.22;93917.53;29395;217;63004;-54
2024/03/27 02:10:56;;;;;;;0.50;0.50;;;;;;;8.02;73.41;93924.06;29395;266;63018;-53
2024/03/27 02:11:28;;;;;;;0.50;0.50;;;;;;;8.00;72.80;93918.25;29395;333;63004;-54
2024/03/27 02:11:59;;;;;;;0.50;0.50;;;;;;;8.00;72.49;93918.25;29395;202;63009;-54
2024/03/27 02:12:30;;;;;;;0.50;0.50;;;;;;;7.99;72.45;93922.06;29395;206;63006;-53
2024/03/27 02:13:03;;;;;;;0.50;0.50;;;;;;;7.99;72.12;93916.66;29395;239;63016;-54
2024/03/27 02:13:35;;;;;;;0.50;0.50;;;;;;;8.00;71.73;93917.47;29394;245;64009;-54
2024/03/27 02:14:06;;;;;;;0.57;0.57;;;;;;;8.02;71.78;93915.19;29394;229;64014;-72
2024/03/27 02:14:37;;;;;;;0.50;0.50;;;;;;;8.04;71.39;93919.13;29395;224;63005;-72
2024/03/27 02:15:10;;;;;;;0.50;0.50;;;;;;;8.07;71.07;93923.81;29394;216;64013;-54
2024/03/27 02:15:42;;;;;;;0.50;0.50;;;;;;;8.09;71.20;93920.78;29395;239;63005;-53
2024/03/27 02:16:13;;;;;;;0.50;0.50;;;;;;;8.11;71.19;93923.12;29394;225;64013;-53
2024/03/27 02:16:45;;;;;;;0.50;0.50;;;;;;;8.13;71.00;93920.88;29395;199;63008;-54
2024/03/27 02:17:18;;;;;;;0.50;0.50;;;;;;;8.15;71.27;93924.00;29395;221;63009;-54
2024/03/27 02:17:50;;;;;;;0.60;0.60;;;;;;;8.16;71.21;93925.56;29395;202;63004;-54
2024/03/27 02:18:21;;;;;;;0.50;0.50;;;;;;;8.18;71.18;93924.09;29394;240;64013;-54
2024/03/27 02:18:53;;;;;;;0.50;0.50;;;;;;;8.20;70.87;93926.44;29395;226;63004;-53
2024/03/27 02:19:24;;;;;;;0.50;0.50;;;;;;;8.22;71.50;93927.66;29395;272;63009;-54
2024/03/27 02:19:55;;;;;;;0.50;0.50;;;;;;;8.25;71.46;93928.88;29395;205;63004;-54
2024/03/27 02:20:27;;;;;;;0.50;0.50;;;;;;;8.26;72.16;93930.44;29395;217;63008;-54
2024/03/27 02:21:02;;;;;;;0.50;0.50;;;;;;;8.25;71.82;93939.69;29395;251;63005;-54
2024/03/27 02:21:37;;;;;;;0.50;0.50;;;;;;;8.25;72.02;93937.00;29395;201;63017;-54
2024/03/27 02:22:08;;;;;;;0.50;0.50;;;;;;;8.24;71.67;93935.41;29395;223;63005;-54
2024/03/27 02:22:40;;;;;;;0.50;0.50;;;;;;;8.23;71.74;93925.75;29395;203;63028;-54
2024/03/27 02:23:19;;;;;;;0.50;0.50;;;;;;;8.22;71.81;93921.47;29395;262;63013;-54
2024/03/27 02:24:23;;;;;;;0.50;0.50;;;;;;;8.19;71.67;93932.97;29394;197;64013;-54
2024/03/27 02:25:34;;;;;;;0.50;0.50;;;;;;;8.19;71.92;93930.28;29395;220;63004;-53
2024/03/27 02:26:16;;;;;;;0.50;0.50;;;;;;;8.16;72.32;93926.34;29394;226;64013;-54
2024/03/27 02:26:48;;;;;;;0.55;0.55;;;;;;;8.16;72.22;93930.97;29395;232;63004;-53
2024/03/27 02:27:19;;;;;;;0.60;0.60;;;;;;;8.14;72.32;93927.84;29395;197;63009;-54
2024/03/27 02:27:50;;;;;;;0.50;0.50;;;;;;;8.13;71.86;93924.34;29395;209;63015;-54
2024/03/27 02:28:22;;;;;;;0.50;0.50;;;;;;;8.12;72.39;93927.41;29395;224;63009;-54
2024/03/27 02:28:53;;;;;;;0.50;0.50;;;;;;;8.10;73.29;93929.66;29395;239;63009;-54
2024/03/27 02:29:24;;;;;;;0.50;0.50;;;;;;;8.05;73.72;93934.19;29394;233;64014;-54
2024/03/27 02:29:57;;;;;;;0.50;0.50;;;;;;;8.01;74.14;93938.72;29395;294;63005;-54
2024/03/27 02:30:28;;;;;;;0.50;0.50;;;;;;;7.97;74.49;93940.53;29395;202;63009;-54
2024/03/27 02:31:00;;;;;;;0.50;0.50;;;;;;;7.92;75.00;93943.53;29395;332;63005;-53
2024/03/27 02:31:31;;;;;;;0.50;0.50;;;;;;;7.88;74.23;93931.84;29395;291;63009;-54
2024/03/27 02:32:03;;;;;;;0.93;0.93;;;;;;;7.89;73.69;93932.63;29395;235;63005;-55
2024/03/27 02:32:35;;;;;;;0.60;0.60;;;;;;;7.88;74.01;93933.75;29395;239;63009;-54
2024/03/27 02:33:06;;;;;;;0.50;0.50;;;;;;;7.89;73.87;93938.81;29394;262;64009;-54
2024/03/27 02:33:38;;;;;;;0.50;0.50;;;;;;;7.87;74.07;93932.97;29395;329;63009;-54
2024/03/27 02:34:11;;;;;;;0.50;0.50;;;;;;;7.86;74.12;93939.50;29395;244;63004;-54
2024/03/27 02:34:42;;;;;;;0.50;0.50;;;;;;;7.87;73.69;93930.28;29395;255;63009;-54
2024/03/27 02:35:14;;;;;;;0.50;0.50;;;;;;;7.85;73.65;93924.44;29395;245;63004;-54
2024/03/27 02:35:45;;;;;;;0.60;0.60;;;;;;;7.85;73.44;93927.13;29395;254;63008;-54